Mc Knightstown, Pennsylvania
Current Conditions -  °F | °C
As of 3:53 PM on Saturday 25 Oct 2014 (Local Time) from KTHV Reporting Station
Clear Clear  
Wind Chill: 21°   Ceiling: Unl
Heat Index: 21°   Visibility: 10mi
Dew Point:   Wind: 9mph
Humidity: 39%   Direction: 250°WSW
Pressure: 29.74"   Gusts: 17mph
Location:  39.8752°N, 77.3219°W
Report Text: KTHV 251953Z AUTO 25008G15KT 10SM CLR 21/07 A2974 RMK AO2 PRESFR SLP072 T02110067
Loading
Personal Weather Stations






























Interactive Weather Map
Tropical Storm Tracking
New forecast layout! Learn more

10-Day Weather Forecast

Advertisements
Track Severe Weather on mobile